RYR3EQ EBCI-ESSA
Flight info
| Callsign | RYR3EQ |
|---|---|
| Flight time | 1h 53m |
| Altitude | 39000 |
| Route | SPI Y862 KENUM N853 ONUNE DCT ROBEG DCT ROSOK DCT SONAL DCT VIBAR/N0368F270 Z227 NILUG |
| Aircraft | B38M/M-SADE3FGILRWY/SB1 |
Departure
| Time | 2026-05-08 15:34 |
|---|---|
| Airport | Brussels South Charleroi Airport (EBCI) |
Arrival
| Time | 2026-05-08 17:27 |
|---|---|
| Airport | Stockholm-Arlanda Airport (ESSA) |
| Time | Latitude | Longitude | Altitude | Speed | Heading |
|---|---|---|---|---|---|
| 2026-05-08 15:18 | 50.46783 | 4.46825 | 581 ft | 0 kts | 337° |
| 2026-05-08 15:26 | 50.46780 | 4.46827 | 581 ft | 2 kts | 337° |
| 2026-05-08 15:26 | 50.46765 | 4.46837 | 582 ft | 2 kts | 335° |
| 2026-05-08 15:27 | 50.46750 | 4.46848 | 583 ft | 2 kts | 335° |
| 2026-05-08 15:27 | 50.46736 | 4.46862 | 582 ft | 2 kts | 311° |
| 2026-05-08 15:27 | 50.46731 | 4.46885 | 581 ft | 2 kts | 261° |
| 2026-05-08 15:27 | 50.46734 | 4.46900 | 581 ft | 0 kts | 246° |
| 2026-05-08 15:29 | 50.46733 | 4.46897 | 581 ft | 2 kts | 245° |
| 2026-05-08 15:29 | 50.46704 | 4.46804 | 581 ft | 15 kts | 232° |
| 2026-05-08 15:30 | 50.46627 | 4.46802 | 585 ft | 8 kts | 180° |
| 2026-05-08 15:30 | 50.46581 | 4.46714 | 582 ft | 16 kts | 246° |
| 2026-05-08 15:30 | 50.46522 | 4.46510 | 584 ft | 25 kts | 245° |
| 2026-05-08 15:30 | 50.46437 | 4.46220 | 588 ft | 29 kts | 245° |
| 2026-05-08 15:31 | 50.46351 | 4.45922 | 591 ft | 30 kts | 246° |
| 2026-05-08 15:31 | 50.46264 | 4.45622 | 595 ft | 29 kts | 245° |
| 2026-05-08 15:31 | 50.46182 | 4.45338 | 598 ft | 27 kts | 245° |
| 2026-05-08 15:31 | 50.46104 | 4.45069 | 601 ft | 28 kts | 246° |
| 2026-05-08 15:32 | 50.46023 | 4.44788 | 606 ft | 29 kts | 246° |
| 2026-05-08 15:32 | 50.45943 | 4.44516 | 615 ft | 23 kts | 244° |
| 2026-05-08 15:32 | 50.45850 | 4.44304 | 612 ft | 24 kts | 232° |
| 2026-05-08 15:32 | 50.45745 | 4.44096 | 613 ft | 25 kts | 232° |
| 2026-05-08 15:33 | 50.45705 | 4.44015 | 625 ft | 2 kts | 231° |
| 2026-05-08 15:33 | 50.45656 | 4.43982 | 621 ft | 11 kts | 169° |
| 2026-05-08 15:33 | 50.45637 | 4.44083 | 621 ft | 13 kts | 69° |
| 2026-05-08 15:33 | 50.45648 | 4.44124 | 625 ft | 0 kts | 66° |
| 2026-05-08 15:34 | 50.45651 | 4.44136 | 623 ft | 6 kts | 66° |
| 2026-05-08 15:34 | 50.45761 | 4.44513 | 612 ft | 83 kts | 65° |
| 2026-05-08 15:34 | 50.46125 | 4.45757 | 628 ft | 161 kts | 65° |
| 2026-05-08 15:34 | 50.46624 | 4.47466 | 1435 ft | 180 kts | 65° |
| 2026-05-08 15:35 | 50.47187 | 4.49282 | 2568 ft | 189 kts | 58° |
| 2026-05-08 15:35 | 50.48037 | 4.50922 | 3428 ft | 207 kts | 49° |
| 2026-05-08 15:35 | 50.49092 | 4.52679 | 4149 ft | 228 kts | 47° |
| 2026-05-08 15:35 | 50.50212 | 4.54561 | 4862 ft | 247 kts | 48° |
| 2026-05-08 15:36 | 50.51365 | 4.56523 | 6107 ft | 249 kts | 48° |
| 2026-05-08 15:36 | 50.52174 | 4.57908 | 6662 ft | 261 kts | 48° |
| 2026-05-08 15:36 | 50.53740 | 4.61006 | 7735 ft | 282 kts | 53° |
| 2026-05-08 15:36 | 50.54763 | 4.63094 | 8713 ft | 285 kts | 53° |
| 2026-05-08 15:37 | 50.55993 | 4.65592 | 9770 ft | 292 kts | 52° |
| 2026-05-08 15:37 | 50.57259 | 4.68157 | 10648 ft | 303 kts | 52° |
| 2026-05-08 15:37 | 50.58592 | 4.70856 | 11312 ft | 320 kts | 52° |
| 2026-05-08 15:37 | 50.59964 | 4.73634 | 12078 ft | 330 kts | 52° |
| 2026-05-08 15:38 | 50.61374 | 4.76492 | 13097 ft | 332 kts | 52° |
| 2026-05-08 15:38 | 50.62801 | 4.79386 | 14016 ft | 338 kts | 52° |
| 2026-05-08 15:38 | 50.64253 | 4.82334 | 14847 ft | 342 kts | 52° |
| 2026-05-08 15:38 | 50.65541 | 4.85502 | 15639 ft | 346 kts | 66° |
| 2026-05-08 15:39 | 50.66190 | 4.89150 | 16439 ft | 349 kts | 85° |
| 2026-05-08 15:39 | 50.66263 | 4.92982 | 17196 ft | 353 kts | 89° |
| 2026-05-08 15:39 | 50.66342 | 4.96882 | 17954 ft | 358 kts | 89° |
| 2026-05-08 15:39 | 50.66435 | 5.00823 | 18666 ft | 363 kts | 89° |
| 2026-05-08 15:40 | 50.66537 | 5.04817 | 19325 ft | 366 kts | 88° |
| 2026-05-08 15:40 | 50.66639 | 5.08785 | 19976 ft | 369 kts | 88° |
| 2026-05-08 15:40 | 50.66744 | 5.12859 | 20628 ft | 373 kts | 88° |
| 2026-05-08 15:40 | 50.66850 | 5.16962 | 21253 ft | 377 kts | 88° |
| 2026-05-08 15:41 | 50.66955 | 5.21105 | 21870 ft | 380 kts | 88° |
| 2026-05-08 15:41 | 50.67059 | 5.25280 | 22496 ft | 384 kts | 88° |
| 2026-05-08 15:41 | 50.67163 | 5.29509 | 23136 ft | 387 kts | 88° |
| 2026-05-08 15:41 | 50.67266 | 5.33770 | 23709 ft | 391 kts | 88° |
| 2026-05-08 15:42 | 50.67369 | 5.38069 | 24202 ft | 394 kts | 88° |
| 2026-05-08 15:42 | 50.67470 | 5.42343 | 24700 ft | 397 kts | 88° |
| 2026-05-08 15:42 | 50.67571 | 5.46762 | 25216 ft | 399 kts | 88° |
| 2026-05-08 15:42 | 50.67670 | 5.51096 | 25685 ft | 402 kts | 88° |
| 2026-05-08 15:43 | 50.67769 | 5.55520 | 26168 ft | 405 kts | 88° |
| 2026-05-08 15:43 | 50.67867 | 5.59964 | 26638 ft | 408 kts | 89° |
| 2026-05-08 15:43 | 50.67963 | 5.64455 | 27098 ft | 411 kts | 89° |
| 2026-05-08 15:43 | 50.68059 | 5.68976 | 27554 ft | 414 kts | 89° |
| 2026-05-08 15:44 | 50.68154 | 5.73516 | 27997 ft | 417 kts | 89° |
| 2026-05-08 15:44 | 50.68247 | 5.78108 | 28442 ft | 419 kts | 89° |
| 2026-05-08 15:44 | 50.68339 | 5.82712 | 28865 ft | 422 kts | 89° |
| 2026-05-08 15:44 | 50.68431 | 5.87363 | 29302 ft | 425 kts | 89° |
| 2026-05-08 15:45 | 50.68519 | 5.91963 | 29727 ft | 427 kts | 89° |
| 2026-05-08 15:45 | 50.68607 | 5.96655 | 30137 ft | 430 kts | 89° |
| 2026-05-08 15:45 | 50.68694 | 6.01392 | 30477 ft | 433 kts | 89° |
| 2026-05-08 15:45 | 50.68780 | 6.06154 | 30800 ft | 436 kts | 89° |
| 2026-05-08 15:46 | 50.68900 | 6.10947 | 31104 ft | 439 kts | 84° |
| 2026-05-08 15:46 | 50.69644 | 6.15598 | 31430 ft | 442 kts | 67° |
| 2026-05-08 15:46 | 50.71009 | 6.19967 | 31718 ft | 445 kts | 63° |
| 2026-05-08 15:46 | 50.72652 | 6.24104 | 32002 ft | 446 kts | 48° |
| 2026-05-08 15:47 | 50.74861 | 6.27527 | 32330 ft | 448 kts | 42° |
| 2026-05-08 15:47 | 50.77107 | 6.30894 | 32584 ft | 451 kts | 42° |
| 2026-05-08 15:47 | 50.79397 | 6.34293 | 32923 ft | 453 kts | 42° |
| 2026-05-08 15:47 | 50.81705 | 6.37685 | 33219 ft | 456 kts | 41° |
| 2026-05-08 15:48 | 50.86385 | 6.44536 | 33838 ft | 460 kts | 41° |
| 2026-05-08 15:48 | 50.88742 | 6.47986 | 34114 ft | 463 kts | 41° |
| 2026-05-08 15:48 | 50.91110 | 6.51458 | 34358 ft | 465 kts | 41° |
| 2026-05-08 15:49 | 50.93487 | 6.54948 | 34649 ft | 465 kts | 41° |
| 2026-05-08 15:49 | 50.95850 | 6.58425 | 34978 ft | 466 kts | 41° |
| 2026-05-08 15:49 | 50.98237 | 6.61939 | 35288 ft | 466 kts | 41° |
| 2026-05-08 15:49 | 51.00571 | 6.65380 | 35594 ft | 466 kts | 41° |
| 2026-05-08 15:50 | 51.02857 | 6.69055 | 35879 ft | 468 kts | 51° |
| 2026-05-08 15:50 | 51.04795 | 6.73198 | 36186 ft | 468 kts | 52° |
| 2026-05-08 15:50 | 51.06774 | 6.77344 | 36439 ft | 470 kts | 52° |
| 2026-05-08 15:50 | 51.08744 | 6.81483 | 36706 ft | 470 kts | 52° |
| 2026-05-08 15:51 | 51.10712 | 6.85638 | 36984 ft | 471 kts | 52° |
| 2026-05-08 15:51 | 51.12682 | 6.89809 | 37255 ft | 471 kts | 52° |
| 2026-05-08 15:51 | 51.14652 | 6.93985 | 37518 ft | 471 kts | 52° |
| 2026-05-08 15:51 | 51.16592 | 6.98105 | 37794 ft | 472 kts | 52° |
| 2026-05-08 15:52 | 51.18559 | 7.02289 | 38066 ft | 472 kts | 52° |
| 2026-05-08 15:52 | 51.20521 | 7.06469 | 38323 ft | 472 kts | 52° |
| 2026-05-08 15:52 | 51.22491 | 7.10673 | 38556 ft | 472 kts | 52° |
| 2026-05-08 15:52 | 51.24452 | 7.14865 | 38787 ft | 473 kts | 52° |
| 2026-05-08 15:53 | 51.26424 | 7.19087 | 38973 ft | 473 kts | 52° |
| 2026-05-08 15:53 | 51.28389 | 7.23299 | 39098 ft | 474 kts | 52° |
| 2026-05-08 15:53 | 51.30354 | 7.27521 | 39122 ft | 473 kts | 52° |
| 2026-05-08 15:54 | 51.34270 | 7.35952 | 39118 ft | 472 kts | 52° |
| 2026-05-08 15:54 | 51.38210 | 7.44265 | 39112 ft | 472 kts | 51° |
| 2026-05-08 15:55 | 51.42231 | 7.52588 | 39101 ft | 472 kts | 51° |
| 2026-05-08 15:55 | 51.48234 | 7.65092 | 39102 ft | 472 kts | 51° |
| 2026-05-08 15:56 | 51.52203 | 7.73394 | 39103 ft | 472 kts | 51° |
| 2026-05-08 15:56 | 51.56192 | 7.81762 | 39110 ft | 472 kts | 51° |
| 2026-05-08 15:57 | 51.60174 | 7.90146 | 39114 ft | 472 kts | 51° |
| 2026-05-08 15:57 | 51.64146 | 7.98536 | 39125 ft | 472 kts | 51° |
| 2026-05-08 15:58 | 51.68094 | 8.06903 | 39136 ft | 472 kts | 51° |
| 2026-05-08 15:58 | 51.72056 | 8.15324 | 39137 ft | 472 kts | 51° |
| 2026-05-08 15:59 | 51.76015 | 8.23767 | 39139 ft | 471 kts | 51° |
| 2026-05-08 15:59 | 51.79959 | 8.32207 | 39140 ft | 471 kts | 51° |
| 2026-05-08 16:00 | 51.83909 | 8.40688 | 39142 ft | 472 kts | 52° |
| 2026-05-08 16:00 | 51.87699 | 8.48853 | 39146 ft | 471 kts | 52° |
| 2026-05-08 16:01 | 51.91626 | 8.57338 | 39147 ft | 471 kts | 52° |
| 2026-05-08 16:01 | 51.95550 | 8.65844 | 39153 ft | 471 kts | 52° |
| 2026-05-08 16:02 | 51.98808 | 8.72929 | 39157 ft | 471 kts | 52° |
| 2026-05-08 16:02 | 52.03352 | 8.82844 | 39157 ft | 471 kts | 52° |
| 2026-05-08 16:03 | 52.07256 | 8.91393 | 39157 ft | 471 kts | 52° |
| 2026-05-08 16:03 | 52.10499 | 8.98515 | 39144 ft | 471 kts | 52° |
| 2026-05-08 16:04 | 52.14395 | 9.07098 | 39156 ft | 471 kts | 52° |
| 2026-05-08 16:04 | 52.18912 | 9.17077 | 39160 ft | 471 kts | 52° |
| 2026-05-08 16:05 | 52.22161 | 9.24275 | 39155 ft | 471 kts | 52° |
| 2026-05-08 16:05 | 52.24319 | 9.28144 | 39144 ft | 466 kts | 37° |
| 2026-05-08 16:05 | 52.26834 | 9.31469 | 39163 ft | 467 kts | 38° |
| 2026-05-08 16:06 | 52.31829 | 9.38273 | 39159 ft | 468 kts | 38° |
| 2026-05-08 16:06 | 52.36849 | 9.45036 | 39158 ft | 467 kts | 37° |
| 2026-05-08 16:07 | 52.41857 | 9.51781 | 39164 ft | 467 kts | 37° |
| 2026-05-08 16:07 | 52.46837 | 9.58513 | 39157 ft | 467 kts | 38° |
| 2026-05-08 16:08 | 52.51846 | 9.65302 | 39157 ft | 467 kts | 38° |
| 2026-05-08 16:08 | 52.56841 | 9.72095 | 39156 ft | 467 kts | 38° |
| 2026-05-08 16:09 | 52.61844 | 9.78920 | 39157 ft | 466 kts | 38° |
| 2026-05-08 16:09 | 52.66833 | 9.85744 | 39159 ft | 466 kts | 38° |
| 2026-05-08 16:10 | 52.71788 | 9.92544 | 39155 ft | 466 kts | 38° |
| 2026-05-08 16:10 | 52.76769 | 9.99400 | 39157 ft | 466 kts | 38° |
| 2026-05-08 16:11 | 52.81746 | 10.06272 | 39157 ft | 466 kts | 38° |
| 2026-05-08 16:11 | 52.86720 | 10.13164 | 39158 ft | 466 kts | 38° |
| 2026-05-08 16:12 | 52.91658 | 10.20024 | 39158 ft | 466 kts | 38° |
| 2026-05-08 16:12 | 52.96623 | 10.26943 | 39159 ft | 466 kts | 38° |
| 2026-05-08 16:13 | 53.01582 | 10.33875 | 39157 ft | 466 kts | 38° |
| 2026-05-08 16:13 | 53.06500 | 10.40772 | 39163 ft | 466 kts | 38° |
| 2026-05-08 16:14 | 53.11447 | 10.47732 | 39164 ft | 466 kts | 39° |
| 2026-05-08 16:14 | 53.16399 | 10.54720 | 39164 ft | 466 kts | 39° |
| 2026-05-08 16:15 | 53.21335 | 10.61706 | 39169 ft | 466 kts | 39° |
| 2026-05-08 16:15 | 53.26266 | 10.68709 | 39170 ft | 466 kts | 39° |
| 2026-05-08 16:16 | 53.31168 | 10.75691 | 39172 ft | 466 kts | 39° |
| 2026-05-08 16:16 | 53.36090 | 10.82723 | 39170 ft | 466 kts | 39° |
| 2026-05-08 16:17 | 53.41016 | 10.89784 | 39173 ft | 466 kts | 39° |
| 2026-05-08 16:17 | 53.45931 | 10.96852 | 39176 ft | 466 kts | 39° |
| 2026-05-08 16:18 | 53.50850 | 11.03948 | 39180 ft | 466 kts | 39° |
| 2026-05-08 16:18 | 53.55728 | 11.11007 | 39180 ft | 466 kts | 39° |
| 2026-05-08 16:19 | 53.60631 | 11.18125 | 39177 ft | 466 kts | 39° |
| 2026-05-08 16:19 | 53.65534 | 11.25265 | 39183 ft | 466 kts | 40° |
| 2026-05-08 16:20 | 53.70427 | 11.32413 | 39184 ft | 466 kts | 40° |
| 2026-05-08 16:20 | 53.75315 | 11.39578 | 39189 ft | 466 kts | 40° |
| 2026-05-08 16:21 | 53.80174 | 11.46722 | 39194 ft | 466 kts | 40° |
| 2026-05-08 16:21 | 53.85061 | 11.53930 | 39191 ft | 466 kts | 40° |
| 2026-05-08 16:22 | 53.89940 | 11.61151 | 39196 ft | 466 kts | 40° |
| 2026-05-08 16:22 | 53.94821 | 11.68397 | 39199 ft | 466 kts | 40° |
| 2026-05-08 16:23 | 53.99668 | 11.75616 | 39202 ft | 466 kts | 40° |
| 2026-05-08 16:23 | 54.04551 | 11.82908 | 39205 ft | 467 kts | 40° |
| 2026-05-08 16:24 | 54.09417 | 11.90198 | 39202 ft | 466 kts | 40° |
| 2026-05-08 16:24 | 54.14285 | 11.97512 | 39210 ft | 466 kts | 40° |
| 2026-05-08 16:25 | 54.19114 | 12.04793 | 39212 ft | 466 kts | 40° |
| 2026-05-08 16:25 | 54.24390 | 12.11136 | 39221 ft | 464 kts | 30° |
| 2026-05-08 16:26 | 54.29921 | 12.16891 | 39222 ft | 465 kts | 30° |
| 2026-05-08 16:26 | 54.35448 | 12.22635 | 39229 ft | 465 kts | 30° |
| 2026-05-08 16:27 | 54.40975 | 12.28393 | 39238 ft | 465 kts | 30° |
| 2026-05-08 16:27 | 54.46463 | 12.34129 | 39239 ft | 465 kts | 30° |
| 2026-05-08 16:28 | 54.51980 | 12.39915 | 39242 ft | 465 kts | 30° |
| 2026-05-08 16:28 | 54.57497 | 12.45718 | 39243 ft | 465 kts | 30° |
| 2026-05-08 16:29 | 54.63012 | 12.51539 | 39249 ft | 465 kts | 30° |
| 2026-05-08 16:29 | 54.68489 | 12.57338 | 39238 ft | 464 kts | 30° |
| 2026-05-08 16:30 | 54.73993 | 12.63184 | 39251 ft | 464 kts | 30° |
| 2026-05-08 16:30 | 54.79496 | 12.69048 | 39251 ft | 465 kts | 31° |
| 2026-05-08 16:31 | 54.84999 | 12.74928 | 39253 ft | 465 kts | 31° |
| 2026-05-08 16:31 | 54.90430 | 12.81011 | 39261 ft | 465 kts | 32° |
| 2026-05-08 16:32 | 54.95795 | 12.87155 | 39265 ft | 465 kts | 32° |
| 2026-05-08 16:32 | 55.01198 | 12.93345 | 39261 ft | 465 kts | 32° |
| 2026-05-08 16:33 | 55.06597 | 12.99550 | 39264 ft | 465 kts | 32° |
| 2026-05-08 16:33 | 55.11994 | 13.05773 | 39253 ft | 465 kts | 32° |
| 2026-05-08 16:34 | 55.17391 | 13.12016 | 39259 ft | 465 kts | 32° |
| 2026-05-08 16:34 | 55.22748 | 13.18235 | 39260 ft | 465 kts | 32° |
| 2026-05-08 16:35 | 55.28136 | 13.24510 | 39263 ft | 465 kts | 33° |
| 2026-05-08 16:35 | 55.33526 | 13.30808 | 39265 ft | 465 kts | 33° |
| 2026-05-08 16:36 | 55.38915 | 13.37124 | 39266 ft | 465 kts | 33° |
| 2026-05-08 16:36 | 55.44261 | 13.43412 | 39268 ft | 466 kts | 33° |
| 2026-05-08 16:37 | 55.49644 | 13.49765 | 39268 ft | 466 kts | 33° |
| 2026-05-08 16:37 | 55.55020 | 13.56130 | 39270 ft | 466 kts | 33° |
| 2026-05-08 16:38 | 55.60405 | 13.62528 | 39264 ft | 466 kts | 33° |
| 2026-05-08 16:38 | 55.65781 | 13.68937 | 39270 ft | 466 kts | 33° |
| 2026-05-08 16:39 | 55.71122 | 13.75325 | 39280 ft | 466 kts | 33° |
| 2026-05-08 16:39 | 55.76484 | 13.81759 | 39284 ft | 466 kts | 33° |
| 2026-05-08 16:40 | 55.81853 | 13.88225 | 39291 ft | 466 kts | 33° |
| 2026-05-08 16:40 | 55.87226 | 13.94716 | 39295 ft | 467 kts | 33° |
| 2026-05-08 16:41 | 55.92556 | 14.01178 | 39293 ft | 466 kts | 33° |
| 2026-05-08 16:42 | 56.00597 | 14.10968 | 39295 ft | 467 kts | 33° |
| 2026-05-08 16:42 | 56.05958 | 14.17523 | 39288 ft | 467 kts | 33° |
| 2026-05-08 16:43 | 56.11310 | 14.24089 | 39285 ft | 467 kts | 33° |
| 2026-05-08 16:43 | 56.16664 | 14.30681 | 39284 ft | 467 kts | 33° |
| 2026-05-08 16:44 | 56.21981 | 14.37249 | 39272 ft | 467 kts | 33° |
| 2026-05-08 16:44 | 56.27327 | 14.43876 | 39274 ft | 467 kts | 33° |
| 2026-05-08 16:45 | 56.32668 | 14.50520 | 39278 ft | 467 kts | 33° |
| 2026-05-08 16:45 | 56.38019 | 14.57200 | 39275 ft | 467 kts | 34° |
| 2026-05-08 16:46 | 56.43354 | 14.63882 | 39273 ft | 467 kts | 34° |
| 2026-05-08 16:46 | 56.48695 | 14.70595 | 39278 ft | 467 kts | 34° |
| 2026-05-08 16:47 | 56.53997 | 14.77283 | 39282 ft | 467 kts | 34° |
| 2026-05-08 16:47 | 56.59328 | 14.84030 | 39284 ft | 467 kts | 34° |
| 2026-05-08 16:48 | 56.64660 | 14.90804 | 39279 ft | 468 kts | 34° |
| 2026-05-08 16:48 | 56.69986 | 14.97592 | 39277 ft | 468 kts | 34° |
| 2026-05-08 16:49 | 56.75277 | 15.04360 | 39274 ft | 468 kts | 34° |
| 2026-05-08 16:49 | 56.80603 | 15.11198 | 39284 ft | 468 kts | 34° |
| 2026-05-08 16:50 | 56.85925 | 15.18053 | 39280 ft | 468 kts | 34° |
| 2026-05-08 16:50 | 56.91241 | 15.24927 | 39285 ft | 468 kts | 34° |
| 2026-05-08 16:51 | 56.96528 | 15.31785 | 39289 ft | 468 kts | 34° |
| 2026-05-08 16:51 | 57.01837 | 15.38697 | 39296 ft | 469 kts | 34° |
| 2026-05-08 16:52 | 57.07150 | 15.45640 | 39299 ft | 469 kts | 34° |
| 2026-05-08 16:52 | 57.12463 | 15.52608 | 39301 ft | 469 kts | 34° |
| 2026-05-08 16:53 | 57.20424 | 15.63096 | 39300 ft | 469 kts | 34° |
| 2026-05-08 16:53 | 57.25699 | 15.70076 | 39310 ft | 469 kts | 34° |
| 2026-05-08 16:54 | 57.31005 | 15.77122 | 39310 ft | 470 kts | 34° |
| 2026-05-08 16:54 | 57.36303 | 15.84184 | 39315 ft | 470 kts | 34° |
| 2026-05-08 16:55 | 57.41611 | 15.91284 | 39325 ft | 470 kts | 34° |
| 2026-05-08 16:55 | 57.46905 | 15.98393 | 39313 ft | 470 kts | 34° |
| 2026-05-08 16:56 | 57.52206 | 16.05536 | 39319 ft | 470 kts | 34° |
| 2026-05-08 16:56 | 57.57468 | 16.12653 | 39318 ft | 470 kts | 34° |
| 2026-05-08 16:57 | 57.62758 | 16.19834 | 39321 ft | 471 kts | 34° |
| 2026-05-08 16:57 | 57.68049 | 16.27042 | 39324 ft | 471 kts | 34° |
| 2026-05-08 16:58 | 57.73328 | 16.34262 | 38757 ft | 469 kts | 34° |
| 2026-05-08 16:58 | 57.75971 | 16.37885 | 37878 ft | 472 kts | 34° |
| 2026-05-08 16:58 | 57.78574 | 16.41462 | 37312 ft | 468 kts | 34° |
| 2026-05-08 16:59 | 57.81187 | 16.45058 | 36908 ft | 465 kts | 33° |
| 2026-05-08 16:59 | 57.83780 | 16.48633 | 36415 ft | 460 kts | 33° |
| 2026-05-08 16:59 | 57.86341 | 16.52171 | 35880 ft | 454 kts | 33° |
| 2026-05-08 16:59 | 57.88865 | 16.55663 | 35360 ft | 447 kts | 33° |
| 2026-05-08 17:00 | 57.91354 | 16.59114 | 34863 ft | 441 kts | 33° |
| 2026-05-08 17:00 | 57.93797 | 16.62507 | 34367 ft | 434 kts | 32° |
| 2026-05-08 17:00 | 57.96210 | 16.65865 | 33802 ft | 430 kts | 32° |
| 2026-05-08 17:00 | 57.98619 | 16.69221 | 33255 ft | 443 kts | 32° |
| 2026-05-08 17:01 | 58.01110 | 16.72698 | 32747 ft | 448 kts | 33° |
| 2026-05-08 17:01 | 58.03625 | 16.76216 | 32292 ft | 452 kts | 33° |
| 2026-05-08 17:01 | 58.06180 | 16.79794 | 31777 ft | 459 kts | 33° |
| 2026-05-08 17:01 | 58.08752 | 16.83405 | 31282 ft | 463 kts | 33° |
| 2026-05-08 17:02 | 58.11339 | 16.87044 | 30762 ft | 465 kts | 33° |
| 2026-05-08 17:02 | 58.13941 | 16.90710 | 30229 ft | 468 kts | 33° |
| 2026-05-08 17:02 | 58.16553 | 16.94394 | 29655 ft | 467 kts | 33° |
| 2026-05-08 17:02 | 58.19153 | 16.98071 | 29168 ft | 465 kts | 33° |
| 2026-05-08 17:03 | 58.21732 | 17.01725 | 28678 ft | 462 kts | 33° |
| 2026-05-08 17:03 | 58.24296 | 17.05364 | 28188 ft | 459 kts | 33° |
| 2026-05-08 17:03 | 58.26847 | 17.08988 | 27694 ft | 456 kts | 33° |
| 2026-05-08 17:03 | 58.29344 | 17.12548 | 27239 ft | 454 kts | 33° |
| 2026-05-08 17:04 | 58.31859 | 17.16138 | 26763 ft | 451 kts | 33° |
| 2026-05-08 17:04 | 58.34230 | 17.19528 | 26313 ft | 448 kts | 33° |
| 2026-05-08 17:04 | 58.36716 | 17.23088 | 25860 ft | 446 kts | 33° |
| 2026-05-08 17:04 | 58.39184 | 17.26629 | 25391 ft | 443 kts | 33° |
| 2026-05-08 17:05 | 58.41635 | 17.30151 | 24929 ft | 440 kts | 33° |
| 2026-05-08 17:05 | 58.44073 | 17.33663 | 24469 ft | 438 kts | 33° |
| 2026-05-08 17:05 | 58.46499 | 17.37162 | 24020 ft | 435 kts | 33° |
| 2026-05-08 17:05 | 58.48907 | 17.40641 | 23492 ft | 433 kts | 33° |
| 2026-05-08 17:06 | 58.51266 | 17.44055 | 23028 ft | 430 kts | 33° |
| 2026-05-08 17:06 | 58.53636 | 17.47492 | 22581 ft | 427 kts | 33° |
| 2026-05-08 17:06 | 58.56002 | 17.50929 | 22138 ft | 425 kts | 33° |
| 2026-05-08 17:06 | 58.58345 | 17.54338 | 21699 ft | 422 kts | 33° |
| 2026-05-08 17:07 | 58.60676 | 17.57736 | 21254 ft | 419 kts | 33° |
| 2026-05-08 17:07 | 58.62989 | 17.61113 | 20832 ft | 417 kts | 33° |
| 2026-05-08 17:07 | 58.65288 | 17.64475 | 20403 ft | 414 kts | 33° |
| 2026-05-08 17:07 | 58.67576 | 17.67827 | 19968 ft | 411 kts | 33° |
| 2026-05-08 17:08 | 58.69831 | 17.71136 | 19551 ft | 403 kts | 33° |
| 2026-05-08 17:08 | 58.71553 | 17.73668 | 19233 ft | 393 kts | 33° |
| 2026-05-08 17:08 | 58.73690 | 17.76813 | 18829 ft | 383 kts | 34° |
| 2026-05-08 17:08 | 58.75768 | 17.79875 | 18402 ft | 378 kts | 34° |
| 2026-05-08 17:09 | 58.77327 | 17.82176 | 18068 ft | 376 kts | 34° |
| 2026-05-08 17:09 | 58.79436 | 17.85056 | 17585 ft | 366 kts | 24° |
| 2026-05-08 17:09 | 58.81800 | 17.86662 | 16947 ft | 357 kts | 7° |
| 2026-05-08 17:09 | 58.84206 | 17.87649 | 16550 ft | 353 kts | 8° |
| 2026-05-08 17:10 | 58.86602 | 17.88718 | 16119 ft | 351 kts | 9° |
| 2026-05-08 17:10 | 58.88967 | 17.89799 | 15709 ft | 349 kts | 9° |
| 2026-05-08 17:10 | 58.91322 | 17.90889 | 15309 ft | 346 kts | 9° |
| 2026-05-08 17:10 | 58.93652 | 17.91974 | 14909 ft | 343 kts | 9° |
| 2026-05-08 17:11 | 58.95962 | 17.93054 | 14529 ft | 341 kts | 9° |
| 2026-05-08 17:11 | 58.98232 | 17.94117 | 14145 ft | 338 kts | 9° |
| 2026-05-08 17:11 | 59.00503 | 17.95184 | 13711 ft | 335 kts | 10° |
| 2026-05-08 17:11 | 59.02765 | 17.96248 | 13283 ft | 333 kts | 10° |
| 2026-05-08 17:12 | 59.05009 | 17.97305 | 12867 ft | 330 kts | 10° |
| 2026-05-08 17:12 | 59.07243 | 17.98241 | 12451 ft | 327 kts | 7° |
| 2026-05-08 17:12 | 59.09470 | 17.99071 | 12044 ft | 325 kts | 7° |
| 2026-05-08 17:12 | 59.11679 | 17.99879 | 11654 ft | 322 kts | 7° |
| 2026-05-08 17:13 | 59.13876 | 18.00680 | 11253 ft | 320 kts | 7° |
| 2026-05-08 17:13 | 59.16025 | 18.01454 | 10857 ft | 318 kts | 7° |
| 2026-05-08 17:13 | 59.18188 | 18.02226 | 10467 ft | 315 kts | 7° |
| 2026-05-08 17:13 | 59.20340 | 18.02987 | 10066 ft | 313 kts | 7° |
| 2026-05-08 17:14 | 59.22466 | 18.03729 | 9638 ft | 304 kts | 7° |
| 2026-05-08 17:14 | 59.24505 | 18.04433 | 9357 ft | 287 kts | 7° |
| 2026-05-08 17:14 | 59.26388 | 18.05088 | 9382 ft | 268 kts | 7° |
| 2026-05-08 17:14 | 59.28224 | 18.05730 | 9159 ft | 267 kts | 7° |
| 2026-05-08 17:15 | 59.30053 | 18.06361 | 8897 ft | 266 kts | 7° |
| 2026-05-08 17:15 | 59.31840 | 18.06969 | 8646 ft | 264 kts | 7° |
| 2026-05-08 17:15 | 59.33224 | 18.07433 | 8444 ft | 264 kts | 7° |
| 2026-05-08 17:15 | 59.35027 | 18.08031 | 8186 ft | 261 kts | 7° |
| 2026-05-08 17:16 | 59.36820 | 18.08616 | 7934 ft | 261 kts | 7° |
| 2026-05-08 17:16 | 59.38605 | 18.09195 | 7684 ft | 260 kts | 7° |
| 2026-05-08 17:16 | 59.40380 | 18.09759 | 7436 ft | 258 kts | 7° |
| 2026-05-08 17:16 | 59.42151 | 18.10318 | 7343 ft | 255 kts | 7° |
| 2026-05-08 17:17 | 59.43906 | 18.10870 | 7345 ft | 256 kts | 7° |
| 2026-05-08 17:17 | 59.45662 | 18.11420 | 7347 ft | 256 kts | 7° |
| 2026-05-08 17:17 | 59.47416 | 18.11974 | 7348 ft | 256 kts | 7° |
| 2026-05-08 17:17 | 59.49177 | 18.12530 | 7355 ft | 256 kts | 7° |
| 2026-05-08 17:18 | 59.50915 | 18.13079 | 7340 ft | 256 kts | 7° |
| 2026-05-08 17:18 | 59.52677 | 18.13634 | 7346 ft | 255 kts | 7° |
| 2026-05-08 17:18 | 59.54269 | 18.14138 | 7359 ft | 249 kts | 7° |
| 2026-05-08 17:18 | 59.55975 | 18.14677 | 7341 ft | 246 kts | 7° |
| 2026-05-08 17:19 | 59.57665 | 18.15215 | 7349 ft | 246 kts | 7° |
| 2026-05-08 17:19 | 59.59357 | 18.15755 | 7346 ft | 246 kts | 7° |
| 2026-05-08 17:19 | 59.61048 | 18.16289 | 7351 ft | 246 kts | 7° |
| 2026-05-08 17:19 | 59.62518 | 18.16751 | 7341 ft | 246 kts | 7° |
| 2026-05-08 17:20 | 59.64212 | 18.17287 | 7351 ft | 247 kts | 7° |
| 2026-05-08 17:20 | 59.65889 | 18.17814 | 7160 ft | 249 kts | 7° |
| 2026-05-08 17:20 | 59.67616 | 18.18345 | 6783 ft | 252 kts | 7° |
| 2026-05-08 17:20 | 59.69348 | 18.18179 | 6377 ft | 248 kts | 343° |
| 2026-05-08 17:21 | 59.70941 | 18.17035 | 5996 ft | 243 kts | 338° |
| 2026-05-08 17:21 | 59.72513 | 18.15775 | 5543 ft | 244 kts | 338° |
| 2026-05-08 17:21 | 59.74079 | 18.14512 | 5079 ft | 243 kts | 338° |
| 2026-05-08 17:21 | 59.75639 | 18.13242 | 4609 ft | 242 kts | 338° |
| 2026-05-08 17:22 | 59.77193 | 18.11970 | 4133 ft | 241 kts | 338° |
| 2026-05-08 17:22 | 59.78739 | 18.10696 | 3703 ft | 239 kts | 338° |
| 2026-05-08 17:22 | 59.80234 | 18.09415 | 3349 ft | 227 kts | 332° |
| 2026-05-08 17:22 | 59.81325 | 18.07330 | 2951 ft | 222 kts | 299° |
| 2026-05-08 17:23 | 59.81665 | 18.04404 | 2618 ft | 218 kts | 264° |
| 2026-05-08 17:23 | 59.81126 | 18.01712 | 2506 ft | 206 kts | 230° |
| 2026-05-08 17:23 | 59.80109 | 17.99884 | 2478 ft | 194 kts | 205° |
| 2026-05-08 17:23 | 59.78837 | 17.99431 | 2455 ft | 183 kts | 172° |
| 2026-05-08 17:24 | 59.77595 | 17.99855 | 2504 ft | 181 kts | 172° |
| 2026-05-08 17:24 | 59.76343 | 17.99937 | 2511 ft | 181 kts | 182° |
| 2026-05-08 17:24 | 59.75094 | 17.99622 | 2348 ft | 179 kts | 189° |
| 2026-05-08 17:24 | 59.73933 | 17.99188 | 2121 ft | 162 kts | 189° |
| 2026-05-08 17:25 | 59.72857 | 17.98788 | 1922 ft | 158 kts | 189° |
| 2026-05-08 17:25 | 59.71778 | 17.98394 | 1703 ft | 156 kts | 189° |
| 2026-05-08 17:25 | 59.70771 | 17.98025 | 1512 ft | 142 kts | 188° |
| 2026-05-08 17:25 | 59.69824 | 17.97683 | 1298 ft | 137 kts | 189° |
| 2026-05-08 17:26 | 59.68888 | 17.97342 | 1059 ft | 136 kts | 188° |
| 2026-05-08 17:26 | 59.67960 | 17.97006 | 835 ft | 135 kts | 189° |
| 2026-05-08 17:26 | 59.67029 | 17.96677 | 614 ft | 133 kts | 189° |
| 2026-05-08 17:26 | 59.66118 | 17.96337 | 403 ft | 133 kts | 188° |
| 2026-05-08 17:27 | 59.65225 | 17.96015 | 227 ft | 129 kts | 188° |
| 2026-05-08 17:27 | 59.64355 | 17.95699 | 115 ft | 119 kts | 188° |
| 2026-05-08 17:27 | 59.63720 | 17.95470 | 118 ft | 61 kts | 190° |
| 2026-05-08 17:27 | 59.63378 | 17.95256 | 122 ft | 44 kts | 214° |
| 2026-05-08 17:28 | 59.63244 | 17.95039 | 121 ft | 12 kts | 233° |
| 2026-05-08 17:28 | 59.63270 | 17.94911 | 123 ft | 12 kts | 331° |
| 2026-05-08 17:28 | 59.63321 | 17.94915 | 124 ft | 0 kts | 12° |
| 2026-05-08 17:29 | 59.63378 | 17.94936 | 124 ft | 19 kts | 11° |
| 2026-05-08 17:30 | 59.63555 | 17.95000 | 118 ft | 30 kts | 10° |
| 2026-05-08 17:30 | 59.63777 | 17.95081 | 113 ft | 32 kts | 11° |
| 2026-05-08 17:30 | 59.63959 | 17.95147 | 111 ft | 22 kts | 10° |
| 2026-05-08 17:30 | 59.64124 | 17.95208 | 110 ft | 26 kts | 10° |
| 2026-05-08 17:31 | 59.64313 | 17.95196 | 107 ft | 28 kts | 330° |
| 2026-05-08 17:31 | 59.64405 | 17.94888 | 105 ft | 29 kts | 271° |
| 2026-05-08 17:31 | 59.64324 | 17.94525 | 105 ft | 31 kts | 238° |
| 2026-05-08 17:31 | 59.64210 | 17.94168 | 107 ft | 29 kts | 238° |
| 2026-05-08 17:32 | 59.64103 | 17.93835 | 111 ft | 24 kts | 239° |
| 2026-05-08 17:32 | 59.64014 | 17.93552 | 113 ft | 26 kts | 238° |
| 2026-05-08 17:32 | 59.64015 | 17.93196 | 113 ft | 29 kts | 297° |
| 2026-05-08 17:32 | 59.64111 | 17.92833 | 113 ft | 31 kts | 297° |
| 2026-05-08 17:33 | 59.64193 | 17.92515 | 114 ft | 26 kts | 296° |
| 2026-05-08 17:33 | 59.64222 | 17.92407 | 119 ft | 26 kts | 298° |
| 2026-05-08 17:34 | 59.64268 | 17.92235 | 115 ft | 25 kts | 298° |
| 2026-05-08 17:34 | 59.64351 | 17.92076 | 117 ft | 15 kts | 7° |
| 2026-05-08 17:35 | 59.64470 | 17.92121 | 111 ft | 20 kts | 10° |
| 2026-05-08 17:35 | 59.64617 | 17.92174 | 114 ft | 23 kts | 10° |
| 2026-05-08 17:35 | 59.64721 | 17.92284 | 113 ft | 9 kts | 88° |
| 2026-05-08 17:35 | 59.64702 | 17.92431 | 113 ft | 13 kts | 107° |
| 2026-05-08 17:36 | 59.64697 | 17.92543 | 111 ft | 5 kts | 47° |
| 2026-05-08 17:36 | 59.64711 | 17.92567 | 113 ft | 0 kts | 34° |
| 2026-05-08 17:36 | 59.64719 | 17.92577 | 113 ft | 6 kts | 35° |
| 2026-05-08 17:37 | 59.64734 | 17.92597 | 112 ft | 0 kts | 33° |